Thompsonville, MI (49683)

12:30 PM EDT on September 01, 2015 (GMT -0400)
thompsonville | | Change Station
CLOSE
Current Station
Personal Weather Station
Location: Thompsonville, MI
Elevation: 748 ft
Nearby Weather Stations

Elev 748 ft 44.50 °N, 85.99 °W | Updated 2 minutes ago

Clear
Clear
84.6 °F
Feels Like 94 °F
N
4.2
Wind Variable Wind from SW

Today
High -- | Low -- °F
--% Chance of Precip.
Yesterday
High -- | Low -- °F
Precip. -- in
7:06 AM 8:20 PM
Waning Gibbous, 88% visible
Pressure 30.02 in
Visibility 10.0 miles
Clouds Clear
Heat Index 94 °F
Dew Point 76 °F
Humidity 76%
Rainfall 0.00 in
Snow Depth Not available.
UV 7 out of 12
Pollen 11.00 out of 12
Air Quality Not available.
Flu Activity Not available.
METAR KFKS 011614Z AUTO 23006KT 10SM CLR 28/22 A3002 RMK AO2 T02820222
Pressure 30.02 in
Visibility 10.0 miles
Clouds Clear
Heat Index 94 °F
Dew Point 76 °F
Humidity 76%
Rainfall 0.00 in
Snow Depth Not available.
UV 7 out of 12
Pollen 11.00 out of 12
Air Quality Not available.
Flu Activity Not available.
METAR KFKS 011614Z AUTO 23006KT 10SM CLR 28/22 A3002 RMK AO2 T02820222
Nowcast | as of 12:00 PM EDT on September 1, 2015

At 1 PM...mostly clear. Temperature 76. Southwest winds 11 mph. At 3 PM...mostly clear. Temperature 78. Southwest winds 13 mph. At 5 PM...mostly clear. Temperature 77. Southwest winds 14 mph. At 7 PM...mostly clear. Temperature 76. Southwest winds 13 mph.

×

10-Day Weather Forecast

×

Almanac

Astronomy

Sep. 01, 2015 Rise Set
Actual Time
Civil Twilight
Nautical Twilight
Astronomical Twilight
Moon
Length of Visible Light
Length of Day
Tomorrow will be .
, % of the Moon is Illuminated

Today's Extremes

State Highs State Lows

Community

WunderPhotos

Upload Photos

1,851,548 photos uploaded!

WunderBlogs® & News

Nearby

Air Quality

  Air Quality AQ Index Pollutant
Not available.

Snow Depth

Station Depth Elevation

Earthquake Activity

City Distance Mag. Time & Date
Minimum magnitude displayed is 2.5.

Coastal Water Temperatures

Place Temperature

Stations

Nearby Weather Stations

Station Location Temp. Windchill Dew Point Humidity Wind Precip. Elev Updated Type